sensor_id;sensor_type;location;lat;lon;timestamp;temperature;humidity
46041;DHT22;31779;49.124;19.190;2022-09-09T00:04:29;15.80;99.90
46041;DHT22;31779;49.124;19.190;2022-09-09T00:07:01;15.90;99.90
46041;DHT22;31779;49.124;19.190;2022-09-09T00:09:32;15.80;99.90
46041;DHT22;31779;49.124;19.190;2022-09-09T00:12:10;15.90;99.90
46041;DHT22;31779;49.124;19.190;2022-09-09T00:17:09;15.80;99.90
46041;DHT22;31779;49.124;19.190;2022-09-09T00:22:27;15.90;99.90
46041;DHT22;31779;49.124;19.190;2022-09-09T00:24:56;15.80;99.90
46041;DHT22;31779;49.124;19.190;2022-09-09T00:27:34;15.80;99.90
46041;DHT22;31779;49.124;19.190;2022-09-09T00:32:43;15.80;99.90
46041;DHT22;31779;49.124;19.190;2022-09-09T00:37:46;15.80;99.90
46041;DHT22;31779;49.124;19.190;2022-09-09T00:40:39;15.60;99.90
46041;DHT22;31779;49.124;19.190;2022-09-09T00:48:05;15.70;99.90
46041;DHT22;31779;49.124;19.190;2022-09-09T00:55:48;15.70;99.90
46041;DHT22;31779;49.124;19.190;2022-09-09T00:58:16;15.70;99.90
46041;DHT22;31779;49.124;19.190;2022-09-09T01:00:44;15.50;99.90
46041;DHT22;31779;49.124;19.190;2022-09-09T01:03:19;15.30;99.90
46041;DHT22;31779;49.124;19.190;2022-09-09T01:08:26;15.30;99.90
46041;DHT22;31779;49.124;19.190;2022-09-09T01:10:58;15.20;99.90
46041;DHT22;31779;49.124;19.190;2022-09-09T01:13:29;15.10;99.90
46041;DHT22;31779;49.124;19.190;2022-09-09T01:16:02;14.90;99.90
46041;DHT22;31779;49.124;19.190;2022-09-09T01:18:34;14.90;99.90
46041;DHT22;31779;49.124;19.190;2022-09-09T01:23:47;14.60;99.90
46041;DHT22;31779;49.124;19.190;2022-09-09T01:26:43;14.40;99.90
46041;DHT22;31779;49.124;19.190;2022-09-09T01:29:21;14.40;99.90
46041;DHT22;31779;49.124;19.190;2022-09-09T01:31:56;14.50;99.90
46041;DHT22;31779;49.124;19.190;2022-09-09T01:34:26;14.50;99.90
46041;DHT22;31779;49.124;19.190;2022-09-09T01:36:59;14.60;99.90
46041;DHT22;31779;49.124;19.190;2022-09-09T01:39:28;14.60;99.90
46041;DHT22;31779;49.124;19.190;2022-09-09T01:42:09;14.40;99.90
46041;DHT22;31779;49.124;19.190;2022-09-09T01:44:39;14.30;99.90
46041;DHT22;31779;49.124;19.190;2022-09-09T01:47:07;14.20;99.90
46041;DHT22;31779;49.124;19.190;2022-09-09T01:49:45;14.20;99.90
46041;DHT22;31779;49.124;19.190;2022-09-09T01:52:20;14.10;99.90
46041;DHT22;31779;49.124;19.190;2022-09-09T01:54:48;14.10;99.90
46041;DHT22;31779;49.124;19.190;2022-09-09T01:57:33;14.10;99.90
46041;DHT22;31779;49.124;19.190;2022-09-09T02:00:07;14.10;99.90
46041;DHT22;31779;49.124;19.190;2022-09-09T02:07:49;13.90;99.90
46041;DHT22;31779;49.124;19.190;2022-09-09T02:10:31;13.90;99.90
46041;DHT22;31779;49.124;19.190;2022-09-09T02:13:12;14.00;99.90
46041;DHT22;31779;49.124;19.190;2022-09-09T02:18:16;14.10;99.90
46041;DHT22;31779;49.124;19.190;2022-09-09T02:20:45;14.10;99.90
46041;DHT22;31779;49.124;19.190;2022-09-09T02:23:14;14.10;99.90
46041;DHT22;31779;49.124;19.190;2022-09-09T02:25:45;14.20;99.90
46041;DHT22;31779;49.124;19.190;2022-09-09T02:28:20;14.20;99.90
46041;DHT22;31779;49.124;19.190;2022-09-09T02:30:49;14.20;99.90
46041;DHT22;31779;49.124;19.190;2022-09-09T02:33:30;14.20;99.90
46041;DHT22;31779;49.124;19.190;2022-09-09T02:36:01;14.30;99.90
46041;DHT22;31779;49.124;19.190;2022-09-09T02:38:33;14.40;99.90
46041;DHT22;31779;49.124;19.190;2022-09-09T02:41:08;14.30;99.90
46041;DHT22;31779;49.124;19.190;2022-09-09T02:43:37;14.40;99.90
46041;DHT22;31779;49.124;19.190;2022-09-09T02:49:00;14.40;99.90
46041;DHT22;31779;49.124;19.190;2022-09-09T02:54:28;14.50;99.90
46041;DHT22;31779;49.124;19.190;2022-09-09T02:59:38;14.40;99.90
46041;DHT22;31779;49.124;19.190;2022-09-09T03:02:05;14.40;99.90
46041;DHT22;31779;49.124;19.190;2022-09-09T03:04:35;14.40;99.90
46041;DHT22;31779;49.124;19.190;2022-09-09T03:07:04;14.50;99.90
46041;DHT22;31779;49.124;19.190;2022-09-09T03:09:31;14.50;99.90
46041;DHT22;31779;49.124;19.190;2022-09-09T03:12:00;14.50;99.90
46041;DHT22;31779;49.124;19.190;2022-09-09T03:14:29;14.50;99.90
46041;DHT22;31779;49.124;19.190;2022-09-09T03:16:58;14.50;99.90
46041;DHT22;31779;49.124;19.190;2022-09-09T03:19:32;14.50;99.90
46041;DHT22;31779;49.124;19.190;2022-09-09T03:22:00;14.50;99.90
46041;DHT22;31779;49.124;19.190;2022-09-09T03:24:29;14.60;99.90
46041;DHT22;31779;49.124;19.190;2022-09-09T03:26:57;14.60;99.90
46041;DHT22;31779;49.124;19.190;2022-09-09T03:29:24;14.60;99.90
46041;DHT22;31779;49.124;19.190;2022-09-09T03:31:55;14.60;99.90
46041;DHT22;31779;49.124;19.190;2022-09-09T03:34:24;14.30;99.90
46041;DHT22;31779;49.124;19.190;2022-09-09T03:36:51;14.30;99.90
46041;DHT22;31779;49.124;19.190;2022-09-09T03:39:19;14.20;99.90
46041;DHT22;31779;49.124;19.190;2022-09-09T03:41:47;14.10;99.90
46041;DHT22;31779;49.124;19.190;2022-09-09T03:44:15;14.10;99.90
46041;DHT22;31779;49.124;19.190;2022-09-09T03:46:43;14.20;99.90
46041;DHT22;31779;49.124;19.190;2022-09-09T03:49:13;14.30;99.90
46041;DHT22;31779;49.124;19.190;2022-09-09T03:51:42;14.30;99.90
46041;DHT22;31779;49.124;19.190;2022-09-09T03:54:12;14.40;99.90
46041;DHT22;31779;49.124;19.190;2022-09-09T03:56:40;14.40;99.90
46041;DHT22;31779;49.124;19.190;2022-09-09T03:59:12;14.50;99.90
46041;DHT22;31779;49.124;19.190;2022-09-09T04:01:42;14.50;99.90
46041;DHT22;31779;49.124;19.190;2022-09-09T04:04:10;14.50;99.90
46041;DHT22;31779;49.124;19.190;2022-09-09T04:06:39;14.50;99.90
46041;DHT22;31779;49.124;19.190;2022-09-09T04:09:07;14.50;99.90
46041;DHT22;31779;49.124;19.190;2022-09-09T04:11:35;14.50;99.90
46041;DHT22;31779;49.124;19.190;2022-09-09T04:14:02;14.50;99.90
46041;DHT22;31779;49.124;19.190;2022-09-09T04:16:32;14.40;99.90
46041;DHT22;31779;49.124;19.190;2022-09-09T04:19:00;14.40;99.90
46041;DHT22;31779;49.124;19.190;2022-09-09T04:21:28;14.50;99.90
46041;DHT22;31779;49.124;19.190;2022-09-09T04:23:56;14.50;99.90
46041;DHT22;31779;49.124;19.190;2022-09-09T04:26:25;14.60;99.90
46041;DHT22;31779;49.124;19.190;2022-09-09T04:28:53;14.50;99.90
46041;DHT22;31779;49.124;19.190;2022-09-09T04:31:22;14.50;99.90
46041;DHT22;31779;49.124;19.190;2022-09-09T04:33:56;14.50;99.90
46041;DHT22;31779;49.124;19.190;2022-09-09T04:36:25;14.50;99.90
46041;DHT22;31779;49.124;19.190;2022-09-09T04:38:57;14.60;99.90
46041;DHT22;31779;49.124;19.190;2022-09-09T04:41:26;14.70;99.90
46041;DHT22;31779;49.124;19.190;2022-09-09T04:43:54;14.70;99.90
46041;DHT22;31779;49.124;19.190;2022-09-09T04:46:22;14.70;99.90
46041;DHT22;31779;49.124;19.190;2022-09-09T04:48:51;14.70;99.90
46041;DHT22;31779;49.124;19.190;2022-09-09T04:51:21;14.80;99.90
46041;DHT22;31779;49.124;19.190;2022-09-09T04:53:51;14.60;99.90
46041;DHT22;31779;49.124;19.190;2022-09-09T04:56:21;14.40;99.90
46041;DHT22;31779;49.124;19.190;2022-09-09T04:58:55;14.20;99.90
46041;DHT22;31779;49.124;19.190;2022-09-09T05:01:34;14.20;99.90
46041;DHT22;31779;49.124;19.190;2022-09-09T05:04:04;14.20;99.90
46041;DHT22;31779;49.124;19.190;2022-09-09T05:06:33;14.40;99.90
46041;DHT22;31779;49.124;19.190;2022-09-09T05:09:03;14.30;99.90
46041;DHT22;31779;49.124;19.190;2022-09-09T05:11:33;14.30;99.90
46041;DHT22;31779;49.124;19.190;2022-09-09T05:14:30;14.40;99.90
46041;DHT22;31779;49.124;19.190;2022-09-09T05:16:59;14.60;99.90
46041;DHT22;31779;49.124;19.190;2022-09-09T05:19:27;14.80;99.90
46041;DHT22;31779;49.124;19.190;2022-09-09T05:21:55;14.90;99.90
46041;DHT22;31779;49.124;19.190;2022-09-09T05:24:33;14.80;99.90
46041;DHT22;31779;49.124;19.190;2022-09-09T05:27:02;14.90;99.90
46041;DHT22;31779;49.124;19.190;2022-09-09T05:29:30;14.70;99.90
46041;DHT22;31779;49.124;19.190;2022-09-09T05:32:02;14.50;99.90
46041;DHT22;31779;49.124;19.190;2022-09-09T05:34:31;14.60;99.90
46041;DHT22;31779;49.124;19.190;2022-09-09T05:37:00;14.50;99.90
46041;DHT22;31779;49.124;19.190;2022-09-09T05:39:28;14.60;99.90
46041;DHT22;31779;49.124;19.190;2022-09-09T05:41:56;14.50;99.90
46041;DHT22;31779;49.124;19.190;2022-09-09T05:44:24;14.40;99.90
46041;DHT22;31779;49.124;19.190;2022-09-09T05:46:55;14.40;99.90
46041;DHT22;31779;49.124;19.190;2022-09-09T05:49:23;14.50;99.90
46041;DHT22;31779;49.124;19.190;2022-09-09T05:51:51;14.50;99.90
46041;DHT22;31779;49.124;19.190;2022-09-09T05:54:20;14.60;99.90
46041;DHT22;31779;49.124;19.190;2022-09-09T05:56:50;14.80;99.90
46041;DHT22;31779;49.124;19.190;2022-09-09T05:59:20;15.10;99.90
46041;DHT22;31779;49.124;19.190;2022-09-09T06:01:50;15.40;99.90
46041;DHT22;31779;49.124;19.190;2022-09-09T06:04:25;15.80;99.90
46041;DHT22;31779;49.124;19.190;2022-09-09T06:06:53;16.00;99.90
46041;DHT22;31779;49.124;19.190;2022-09-09T06:09:22;16.40;99.90
46041;DHT22;31779;49.124;19.190;2022-09-09T06:11:50;17.20;99.90
46041;DHT22;31779;49.124;19.190;2022-09-09T06:14:20;18.10;99.90
46041;DHT22;31779;49.124;19.190;2022-09-09T06:16:50;18.60;99.90
46041;DHT22;31779;49.124;19.190;2022-09-09T06:19:21;19.10;99.90
46041;DHT22;31779;49.124;19.190;2022-09-09T06:21:49;19.50;99.90
46041;DHT22;31779;49.124;19.190;2022-09-09T06:24:17;19.50;99.90
46041;DHT22;31779;49.124;19.190;2022-09-09T06:26:46;19.10;99.90
46041;DHT22;31779;49.124;19.190;2022-09-09T06:29:21;18.60;99.90
46041;DHT22;31779;49.124;19.190;2022-09-09T06:31:50;18.60;99.90
46041;DHT22;31779;49.124;19.190;2022-09-09T06:34:21;20.00;99.90
46041;DHT22;31779;49.124;19.190;2022-09-09T06:36:53;19.00;99.90
46041;DHT22;31779;49.124;19.190;2022-09-09T06:39:20;18.70;99.90
46041;DHT22;31779;49.124;19.190;2022-09-09T06:41:49;18.60;99.90
46041;DHT22;31779;49.124;19.190;2022-09-09T06:44:38;18.60;99.90
46041;DHT22;31779;49.124;19.190;2022-09-09T06:47:11;18.90;99.90
46041;DHT22;31779;49.124;19.190;2022-09-09T06:49:41;20.20;99.90
46041;DHT22;31779;49.124;19.190;2022-09-09T06:52:14;20.80;99.90
46041;DHT22;31779;49.124;19.190;2022-09-09T06:54:43;20.70;99.90
46041;DHT22;31779;49.124;19.190;2022-09-09T06:57:14;20.80;99.90
46041;DHT22;31779;49.124;19.190;2022-09-09T07:00:02;21.10;99.90
46041;DHT22;31779;49.124;19.190;2022-09-09T07:02:30;21.40;99.90
46041;DHT22;31779;49.124;19.190;2022-09-09T07:04:57;21.40;99.90
46041;DHT22;31779;49.124;19.190;2022-09-09T07:07:26;20.60;99.90
46041;DHT22;31779;49.124;19.190;2022-09-09T07:09:55;21.30;99.90
46041;DHT22;31779;49.124;19.190;2022-09-09T07:12:24;21.80;99.90
46041;DHT22;31779;49.124;19.190;2022-09-09T07:14:57;22.90;99.90
46041;DHT22;31779;49.124;19.190;2022-09-09T07:17:24;22.20;99.90
46041;DHT22;31779;49.124;19.190;2022-09-09T07:19:53;22.20;99.90
46041;DHT22;31779;49.124;19.190;2022-09-09T07:22:21;23.00;99.90
46041;DHT22;31779;49.124;19.190;2022-09-09T07:24:48;23.40;99.90
46041;DHT22;31779;49.124;19.190;2022-09-09T07:27:17;23.60;99.90
46041;DHT22;31779;49.124;19.190;2022-09-09T07:29:47;24.00;99.30
46041;DHT22;31779;49.124;19.190;2022-09-09T07:32:14;24.10;98.80
46041;DHT22;31779;49.124;19.190;2022-09-09T07:34:43;24.00;98.10
46041;DHT22;31779;49.124;19.190;2022-09-09T07:37:10;24.60;96.10
46041;DHT22;31779;49.124;19.190;2022-09-09T07:39:43;24.80;93.90
46041;DHT22;31779;49.124;19.190;2022-09-09T07:42:12;25.00;94.20
46041;DHT22;31779;49.124;19.190;2022-09-09T07:44:41;24.60;91.40
46041;DHT22;31779;49.124;19.190;2022-09-09T07:47:14;24.60;95.80
46041;DHT22;31779;49.124;19.190;2022-09-09T07:49:47;25.00;96.00
46041;DHT22;31779;49.124;19.190;2022-09-09T07:52:23;25.60;90.40
46041;DHT22;31779;49.124;19.190;2022-09-09T07:54:55;26.40;92.10
46041;DHT22;31779;49.124;19.190;2022-09-09T07:57:23;27.00;85.20
46041;DHT22;31779;49.124;19.190;2022-09-09T07:59:53;28.90;85.40
46041;DHT22;31779;49.124;19.190;2022-09-09T08:02:20;33.30;78.80
46041;DHT22;31779;49.124;19.190;2022-09-09T08:04:49;33.60;63.80
46041;DHT22;31779;49.124;19.190;2022-09-09T08:07:17;30.90;61.50
46041;DHT22;31779;49.124;19.190;2022-09-09T08:09:50;29.60;66.20
46041;DHT22;31779;49.124;19.190;2022-09-09T08:12:22;28.20;71.40
46041;DHT22;31779;49.124;19.190;2022-09-09T08:14:51;27.30;76.50
46041;DHT22;31779;49.124;19.190;2022-09-09T08:17:24;27.00;77.10
46041;DHT22;31779;49.124;19.190;2022-09-09T08:19:52;26.50;73.10
46041;DHT22;31779;49.124;19.190;2022-09-09T08:22:25;26.80;71.30
46041;DHT22;31779;49.124;19.190;2022-09-09T08:24:54;25.50;78.40
46041;DHT22;31779;49.124;19.190;2022-09-09T08:27:23;25.50;74.20
46041;DHT22;31779;49.124;19.190;2022-09-09T08:29:51;25.50;78.10
46041;DHT22;31779;49.124;19.190;2022-09-09T08:32:19;28.80;74.00
46041;DHT22;31779;49.124;19.190;2022-09-09T08:34:47;34.10;63.30
46041;DHT22;31779;49.124;19.190;2022-09-09T08:37:23;35.80;55.70
46041;DHT22;31779;49.124;19.190;2022-09-09T08:39:50;37.40;51.50
46041;DHT22;31779;49.124;19.190;2022-09-09T08:42:32;40.80;46.60
46041;DHT22;31779;49.124;19.190;2022-09-09T08:47:48;42.40;44.60
46041;DHT22;31779;49.124;19.190;2022-09-09T08:50:23;43.40;40.60
46041;DHT22;31779;49.124;19.190;2022-09-09T08:58:16;44.00;35.00
46041;DHT22;31779;49.124;19.190;2022-09-09T09:03:28;44.80;38.90
46041;DHT22;31779;49.124;19.190;2022-09-09T09:08:44;43.40;36.20
46041;DHT22;31779;49.124;19.190;2022-09-09T09:11:17;46.40;36.30
46041;DHT22;31779;49.124;19.190;2022-09-09T09:13:47;46.70;35.70
46041;DHT22;31779;49.124;19.190;2022-09-09T09:16:32;51.40;34.70
46041;DHT22;31779;49.124;19.190;2022-09-09T09:19:03;47.00;32.90
46041;DHT22;31779;49.124;19.190;2022-09-09T09:21:37;46.60;31.50
46041;DHT22;31779;49.124;19.190;2022-09-09T09:26:49;42.60;33.00
46041;DHT22;31779;49.124;19.190;2022-09-09T09:29:18;41.70;33.20
46041;DHT22;31779;49.124;19.190;2022-09-09T09:31:48;46.90;33.00
46041;DHT22;31779;49.124;19.190;2022-09-09T09:34:18;51.10;30.00
46041;DHT22;31779;49.124;19.190;2022-09-09T09:39:28;47.40;31.00
46041;DHT22;31779;49.124;19.190;2022-09-09T09:42:17;46.20;31.20
46041;DHT22;31779;49.124;19.190;2022-09-09T09:44:51;46.80;31.30
46041;DHT22;31779;49.124;19.190;2022-09-09T09:47:21;51.30;29.90
46041;DHT22;31779;49.124;19.190;2022-09-09T09:50:00;53.00;29.70
46041;DHT22;31779;49.124;19.190;2022-09-09T09:52:35;55.60;29.40
46041;DHT22;31779;49.124;19.190;2022-09-09T09:55:05;54.20;28.00
46041;DHT22;31779;49.124;19.190;2022-09-09T09:57:41;55.40;30.10
46041;DHT22;31779;49.124;19.190;2022-09-09T10:02:41;52.40;28.60
46041;DHT22;31779;49.124;19.190;2022-09-09T10:08:08;53.20;27.80
46041;DHT22;31779;49.124;19.190;2022-09-09T10:13:18;51.10;26.80
46041;DHT22;31779;49.124;19.190;2022-09-09T10:15:52;47.30;29.40
46041;DHT22;31779;49.124;19.190;2022-09-09T10:21:38;53.20;28.40
46041;DHT22;31779;49.124;19.190;2022-09-09T10:26:50;46.30;30.40
46041;DHT22;31779;49.124;19.190;2022-09-09T10:31:59;46.50;31.50
46041;DHT22;31779;49.124;19.190;2022-09-09T10:37:47;43.30;32.50
46041;DHT22;31779;49.124;19.190;2022-09-09T10:42:33;40.50;31.00
46041;DHT22;31779;49.124;19.190;2022-09-09T10:45:16;42.90;32.30
46041;DHT22;31779;49.124;19.190;2022-09-09T10:56:15;47.60;31.10
46041;DHT22;31779;49.124;19.190;2022-09-09T10:58:47;46.90;30.00
46041;DHT22;31779;49.124;19.190;2022-09-09T11:01:18;47.00;28.20
46041;DHT22;31779;49.124;19.190;2022-09-09T11:03:47;48.60;29.50
46041;DHT22;31779;49.124;19.190;2022-09-09T11:06:21;48.00;29.70
46041;DHT22;31779;49.124;19.190;2022-09-09T11:08:50;48.70;30.00
46041;DHT22;31779;49.124;19.190;2022-09-09T11:12:09;50.20;27.50
46041;DHT22;31779;49.124;19.190;2022-09-09T11:14:19;50.80;27.50
46041;DHT22;31779;49.124;19.190;2022-09-09T11:16:50;49.50;29.50
46041;DHT22;31779;49.124;19.190;2022-09-09T11:19:33;48.90;29.20
46041;DHT22;31779;49.124;19.190;2022-09-09T11:35:05;42.90;32.60
46041;DHT22;31779;49.124;19.190;2022-09-09T11:40:19;45.30;30.10
46041;DHT22;31779;49.124;19.190;2022-09-09T11:42:59;44.30;30.80
46041;DHT22;31779;49.124;19.190;2022-09-09T11:45:28;44.90;30.50
46041;DHT22;31779;49.124;19.190;2022-09-09T11:47:57;41.90;29.80
46041;DHT22;31779;49.124;19.190;2022-09-09T11:56:09;43.60;29.90
46041;DHT22;31779;49.124;19.190;2022-09-09T11:58:38;39.90;33.50
46041;DHT22;31779;49.124;19.190;2022-09-09T12:04:16;40.40;33.00
46041;DHT22;31779;49.124;19.190;2022-09-09T12:06:55;38.60;33.60
46041;DHT22;31779;49.124;19.190;2022-09-09T12:11:51;40.70;31.00
46041;DHT22;31779;49.124;19.190;2022-09-09T12:14:38;40.90;30.00
46041;DHT22;31779;49.124;19.190;2022-09-09T12:19:43;39.30;34.80
46041;DHT22;31779;49.124;19.190;2022-09-09T12:22:21;36.10;35.10
46041;DHT22;31779;49.124;19.190;2022-09-09T12:27:34;34.30;40.40
46041;DHT22;31779;49.124;19.190;2022-09-09T12:30:12;35.30;37.80
46041;DHT22;31779;49.124;19.190;2022-09-09T12:32:41;33.80;39.40
46041;DHT22;31779;49.124;19.190;2022-09-09T12:35:13;35.00;37.70
46041;DHT22;31779;49.124;19.190;2022-09-09T12:38:01;34.70;37.30
46041;DHT22;31779;49.124;19.190;2022-09-09T12:40:30;33.70;39.80
46041;DHT22;31779;49.124;19.190;2022-09-09T12:42:59;32.30;41.70
46041;DHT22;31779;49.124;19.190;2022-09-09T12:45:29;32.00;39.50
46041;DHT22;31779;49.124;19.190;2022-09-09T12:48:08;31.80;42.30
46041;DHT22;31779;49.124;19.190;2022-09-09T12:50:43;30.00;43.00
46041;DHT22;31779;49.124;19.190;2022-09-09T12:53:15;29.60;43.40
46041;DHT22;31779;49.124;19.190;2022-09-09T12:55:51;28.20;45.90
46041;DHT22;31779;49.124;19.190;2022-09-09T12:58:19;29.20;44.40
46041;DHT22;31779;49.124;19.190;2022-09-09T13:00:51;28.90;45.10
46041;DHT22;31779;49.124;19.190;2022-09-09T13:03:20;28.70;45.20
46041;DHT22;31779;49.124;19.190;2022-09-09T13:05:48;28.40;45.40
46041;DHT22;31779;49.124;19.190;2022-09-09T13:08:16;28.40;45.00
46041;DHT22;31779;49.124;19.190;2022-09-09T13:10:57;28.50;44.90
46041;DHT22;31779;49.124;19.190;2022-09-09T13:15:58;27.90;46.40
46041;DHT22;31779;49.124;19.190;2022-09-09T13:18:34;26.90;48.20
46041;DHT22;31779;49.124;19.190;2022-09-09T13:21:02;26.90;49.70
46041;DHT22;31779;49.124;19.190;2022-09-09T13:23:31;26.80;48.90
46041;DHT22;31779;49.124;19.190;2022-09-09T13:26:01;26.90;48.30
46041;DHT22;31779;49.124;19.190;2022-09-09T13:28:39;26.00;48.10
46041;DHT22;31779;49.124;19.190;2022-09-09T13:31:19;26.20;51.80
46041;DHT22;31779;49.124;19.190;2022-09-09T13:33:49;25.70;47.80
46041;DHT22;31779;49.124;19.190;2022-09-09T13:36:30;26.90;49.50
46041;DHT22;31779;49.124;19.190;2022-09-09T13:38:59;27.30;48.10
46041;DHT22;31779;49.124;19.190;2022-09-09T13:41:42;26.90;46.20
46041;DHT22;31779;49.124;19.190;2022-09-09T13:44:22;26.80;50.50
46041;DHT22;31779;49.124;19.190;2022-09-09T13:47:01;25.90;50.70
46041;DHT22;31779;49.124;19.190;2022-09-09T13:49:36;26.30;48.80
46041;DHT22;31779;49.124;19.190;2022-09-09T13:52:05;26.70;49.90
46041;DHT22;31779;49.124;19.190;2022-09-09T13:54:35;25.50;47.10
46041;DHT22;31779;49.124;19.190;2022-09-09T13:57:02;24.90;48.10
46041;DHT22;31779;49.124;19.190;2022-09-09T13:59:31;24.50;49.00
46041;DHT22;31779;49.124;19.190;2022-09-09T14:02:19;24.90;52.40
46041;DHT22;31779;49.124;19.190;2022-09-09T14:04:48;25.00;50.10
46041;DHT22;31779;49.124;19.190;2022-09-09T14:07:18;25.20;51.20
46041;DHT22;31779;49.124;19.190;2022-09-09T14:09:46;24.50;50.30
46041;DHT22;31779;49.124;19.190;2022-09-09T14:12:17;24.50;50.90
46041;DHT22;31779;49.124;19.190;2022-09-09T14:14:45;24.40;54.10
46041;DHT22;31779;49.124;19.190;2022-09-09T14:17:13;24.30;49.30
46041;DHT22;31779;49.124;19.190;2022-09-09T14:19:41;24.20;56.10
46041;DHT22;31779;49.124;19.190;2022-09-09T14:22:10;24.30;49.80
46041;DHT22;31779;49.124;19.190;2022-09-09T14:24:41;24.10;53.90
46041;DHT22;31779;49.124;19.190;2022-09-09T14:27:08;24.20;53.30
46041;DHT22;31779;49.124;19.190;2022-09-09T14:29:37;24.00;52.00
46041;DHT22;31779;49.124;19.190;2022-09-09T14:32:04;23.60;52.30
46041;DHT22;31779;49.124;19.190;2022-09-09T14:34:38;23.70;54.70
46041;DHT22;31779;49.124;19.190;2022-09-09T14:37:06;23.40;51.80
46041;DHT22;31779;49.124;19.190;2022-09-09T14:39:34;23.40;52.40
46041;DHT22;31779;49.124;19.190;2022-09-09T14:42:02;23.30;52.80
46041;DHT22;31779;49.124;19.190;2022-09-09T14:44:30;23.20;51.40
46041;DHT22;31779;49.124;19.190;2022-09-09T14:46:58;23.00;52.40
46041;DHT22;31779;49.124;19.190;2022-09-09T14:49:26;23.30;55.80
46041;DHT22;31779;49.124;19.190;2022-09-09T14:51:54;23.00;54.70
46041;DHT22;31779;49.124;19.190;2022-09-09T14:54:21;23.20;62.70
46041;DHT22;31779;49.124;19.190;2022-09-09T14:56:50;22.70;63.70
46041;DHT22;31779;49.124;19.190;2022-09-09T14:59:18;22.30;68.10
46041;DHT22;31779;49.124;19.190;2022-09-09T15:01:45;22.10;70.50
46041;DHT22;31779;49.124;19.190;2022-09-09T15:04:13;21.70;71.70
46041;DHT22;31779;49.124;19.190;2022-09-09T15:06:44;21.70;73.80
46041;DHT22;31779;49.124;19.190;2022-09-09T15:09:15;21.60;74.00
46041;DHT22;31779;49.124;19.190;2022-09-09T15:11:43;21.50;73.90
46041;DHT22;31779;49.124;19.190;2022-09-09T15:14:11;21.30;76.00
46041;DHT22;31779;49.124;19.190;2022-09-09T15:16:39;21.40;76.50
46041;DHT22;31779;49.124;19.190;2022-09-09T15:19:07;21.20;77.50
46041;DHT22;31779;49.124;19.190;2022-09-09T15:21:35;21.00;78.20
46041;DHT22;31779;49.124;19.190;2022-09-09T15:24:03;20.90;80.20
46041;DHT22;31779;49.124;19.190;2022-09-09T15:26:32;21.20;81.10
46041;DHT22;31779;49.124;19.190;2022-09-09T15:28:59;21.20;80.90
46041;DHT22;31779;49.124;19.190;2022-09-09T15:31:28;21.00;79.20
46041;DHT22;31779;49.124;19.190;2022-09-09T15:33:58;21.00;82.80
46041;DHT22;31779;49.124;19.190;2022-09-09T15:38:57;20.40;92.00
46041;DHT22;31779;49.124;19.190;2022-09-09T15:41:26;20.80;86.50
46041;DHT22;31779;49.124;19.190;2022-09-09T15:43:55;20.60;91.20
46041;DHT22;31779;49.124;19.190;2022-09-09T15:46:28;20.20;96.70
46041;DHT22;31779;49.124;19.190;2022-09-09T15:48:57;20.50;98.80
46041;DHT22;31779;49.124;19.190;2022-09-09T15:51:25;20.40;99.80
46041;DHT22;31779;49.124;19.190;2022-09-09T15:54:11;20.40;99.90
46041;DHT22;31779;49.124;19.190;2022-09-09T15:56:39;19.70;99.90
46041;DHT22;31779;49.124;19.190;2022-09-09T15:59:07;19.70;99.90
46041;DHT22;31779;49.124;19.190;2022-09-09T16:01:35;19.50;99.90
46041;DHT22;31779;49.124;19.190;2022-09-09T16:04:02;19.80;99.90
46041;DHT22;31779;49.124;19.190;2022-09-09T16:06:31;19.80;99.90
46041;DHT22;31779;49.124;19.190;2022-09-09T16:08:59;19.80;99.90
46041;DHT22;31779;49.124;19.190;2022-09-09T16:11:29;19.60;99.90
46041;DHT22;31779;49.124;19.190;2022-09-09T16:13:58;19.60;99.90
46041;DHT22;31779;49.124;19.190;2022-09-09T16:16:27;19.60;99.90
46041;DHT22;31779;49.124;19.190;2022-09-09T16:18:57;19.70;99.90
46041;DHT22;31779;49.124;19.190;2022-09-09T16:21:30;19.10;99.90
46041;DHT22;31779;49.124;19.190;2022-09-09T16:23:58;19.00;99.90
46041;DHT22;31779;49.124;19.190;2022-09-09T16:26:28;18.90;99.90
46041;DHT22;31779;49.124;19.190;2022-09-09T16:28:58;18.80;99.90
46041;DHT22;31779;49.124;19.190;2022-09-09T16:31:27;18.90;99.90
46041;DHT22;31779;49.124;19.190;2022-09-09T16:33:55;18.60;99.90
46041;DHT22;31779;49.124;19.190;2022-09-09T16:36:23;18.30;99.90
46041;DHT22;31779;49.124;19.190;2022-09-09T16:38:52;18.20;99.90
46041;DHT22;31779;49.124;19.190;2022-09-09T16:41:20;18.30;99.90
46041;DHT22;31779;49.124;19.190;2022-09-09T16:43:52;18.30;99.90
46041;DHT22;31779;49.124;19.190;2022-09-09T16:46:21;18.20;99.90
46041;DHT22;31779;49.124;19.190;2022-09-09T16:48:49;18.10;99.90
46041;DHT22;31779;49.124;19.190;2022-09-09T16:51:18;18.10;99.90
46041;DHT22;31779;49.124;19.190;2022-09-09T16:53:46;17.70;99.90
46041;DHT22;31779;49.124;19.190;2022-09-09T16:56:15;17.70;99.90
46041;DHT22;31779;49.124;19.190;2022-09-09T16:58:44;17.70;99.90
46041;DHT22;31779;49.124;19.190;2022-09-09T17:01:16;17.70;99.90
46041;DHT22;31779;49.124;19.190;2022-09-09T17:03:44;17.30;99.90
46041;DHT22;31779;49.124;19.190;2022-09-09T17:06:13;17.30;99.90
46041;DHT22;31779;49.124;19.190;2022-09-09T17:08:41;17.10;99.90
46041;DHT22;31779;49.124;19.190;2022-09-09T17:11:13;17.00;99.90
46041;DHT22;31779;49.124;19.190;2022-09-09T17:13:42;17.00;99.90
46041;DHT22;31779;49.124;19.190;2022-09-09T17:16:12;16.90;99.90
46041;DHT22;31779;49.124;19.190;2022-09-09T17:18:40;16.90;99.90
46041;DHT22;31779;49.124;19.190;2022-09-09T17:21:12;16.70;99.90
46041;DHT22;31779;49.124;19.190;2022-09-09T17:23:43;16.70;99.90
46041;DHT22;31779;49.124;19.190;2022-09-09T17:26:14;16.60;99.90
46041;DHT22;31779;49.124;19.190;2022-09-09T17:28:43;16.60;99.90
46041;DHT22;31779;49.124;19.190;2022-09-09T17:31:14;16.60;99.90
46041;DHT22;31779;49.124;19.190;2022-09-09T17:33:47;16.50;99.90
46041;DHT22;31779;49.124;19.190;2022-09-09T17:36:20;16.70;99.90
46041;DHT22;31779;49.124;19.190;2022-09-09T17:38:49;16.50;99.90
46041;DHT22;31779;49.124;19.190;2022-09-09T17:41:21;16.30;99.90
46041;DHT22;31779;49.124;19.190;2022-09-09T17:43:51;16.30;99.90
46041;DHT22;31779;49.124;19.190;2022-09-09T17:46:32;16.40;99.90
46041;DHT22;31779;49.124;19.190;2022-09-09T17:49:10;16.50;99.90
46041;DHT22;31779;49.124;19.190;2022-09-09T17:51:40;16.50;99.90